HTMT

Mtwara Airport

Mtwara, Tanzania
METAR HTMT 231700Z 36008KT 9999 SCT022 FEW023CB 28/25 Q1008
Observed Flight Rules
Feb-23 @ 17:00 UTC (6 hours ago) Visual Flight Rules
Wind Visibility Clouds
360° at 8 knots 10,000+ meters
  • Scattered at 2,200' AGL
  • Few at 2,300' AGL
Temperatures Readings
Current 28°C / 82°F
Dewpoint 25°C / 77°F
Humidity 84%
Altimeter 29.76" Hg
Pressure 1008 hPa
Elevation 113
METAR HTMT 231700Z 36008KT 9999 SCT022 FEW023CB 28/25 Q1008
Observed Flight Rules
Feb-23 @ 17:00 UTC
(6 hours ago)
VFR
Wind Visibility
360° at 8 knots 10,000+ meters
Clouds
  • Scattered at 2,200' AGL
  • Few at 2,300' AGL
Temperature Dewpoint
28°C / 82°F 25°C / 77°F
Humidity Altimeter Pressure
84% 29.76" Hg 1008 hPa